Porteiras, Brazil
Current Conditions -  °F | °C
As of 9:00 AM on Tuesday 21 Oct 2014 (Local Time) from SBJU Reporting Station
Broken Clouds Broken Clouds  
Wind Chill: 81°   Ceiling: 2000
Heat Index: 84°   Visibility: 6mi
Dew Point: 70°   Wind: 8mph
Humidity: 70%   Direction: 70°ENE
Pressure: 30.06"   Gusts: NA
Location:  7.53°S, 39.12°W
Report Text: SBJU 211200Z 07007KT 9999 BKN020 27/21 Q1018
Loading
Personal Weather Stations






























Interactive Weather Map
Tropical Storm Tracking
New forecast layout! Learn more

10-Day Weather Forecast

Advertisements
Track Severe Weather on mobile